Marine Hornbill — 3FEF3 — position and weather

sailwx.info

Track history (hours):
 
Tides and Currents Weather Stations Pressure Air Temp Water Temp Dewpoint Dewpoint Depression Visibility Wind Speed Wind Dir Waves Ship Positions

Marine Hornbill

Last reported at 2017-Mar-04 11:31 UTC. Time now 2017-Mar-24 06:02 UTC.
Position N 34°07' E 134°57'.
Warning: this ship's position is 19 days out of date.

Length 116 m; draft 7.2 m.

Type: Cargo ship. MMSI: 357869000.

Date/timePositionNaut miles runAvg speedWind from/ knotsBaromVisibWave heightAir tempDewpointWater temp
2017-Mar-04 11:31N 34°07' E 134°57'1312.8
2017-Mar-04 10:29N 34°20' E 134°60'1212.5
2017-Mar-04 09:32N 34°30' E 135°07'1111.0
2017-Mar-04 08:33N 34°38' E 135°16'4 3.9
2017-Mar-04 07:31N 34°42' E 135°15'0 0.0
2017-Mar-04 06:31N 34°42' E 135°15'0 0.0
2017-Mar-04 05:31N 34°42' E 135°15'0 0.0
2017-Mar-04 04:31N 34°42' E 135°15'0 0.0
2017-Mar-04 03:25N 34°42' E 135°15'0 0.0
2017-Mar-04 02:31N 34°42' E 135°15'0 0.0
2017-Mar-04 01:25N 34°42' E 135°15'0 0.0
2017-Mar-04 00:31N 34°42' E 135°15'0 0.0
2017-Mar-03 23:25N 34°42' E 135°15'0 0.0
2017-Mar-03 22:31N 34°42' E 135°15'0 0.0
2017-Mar-03 21:31N 34°42' E 135°15'0 0.0
2017-Mar-03 20:31N 34°42' E 135°15'0 0.0
2017-Mar-03 19:19N 34°42' E 135°15'0 0.0
2017-Mar-03 18:31N 34°42' E 135°15'0 0.0
2017-Mar-03 17:25N 34°42' E 135°15'0 0.0
2017-Mar-03 16:31N 34°42' E 135°15'0 0.0
2017-Mar-03 15:25N 34°42' E 135°15'0 0.0
2017-Mar-03 14:31N 34°42' E 135°15'0 0.0
2017-Mar-03 13:31N 34°42' E 135°15'0 0.0
2017-Mar-03 12:25N 34°42' E 135°15'0 0.0
2017-Mar-03 11:31N 34°42' E 135°15'0 0.0
2017-Mar-03 10:31N 34°42' E 135°15'0 0.0
2017-Mar-03 09:31N 34°42' E 135°15'0 0.0
2017-Mar-03 08:31N 34°42' E 135°15'0 0.0
2017-Mar-03 07:31N 34°42' E 135°15'0 0.0
2017-Mar-03 06:31N 34°42' E 135°15'0 0.0
2017-Mar-03 05:31N 34°42' E 135°15'0 0.0
2017-Mar-03 04:34N 34°42' E 135°15'3 3.0
2017-Mar-03 03:33N 34°39' E 135°16'2 2.2
2017-Mar-03 02:33N 34°37' E 135°14'0 0.0
2017-Mar-03 01:27N 34°37' E 135°14'0 0.2
2017-Mar-03 00:33N 34°37' E 135°14'7 6.7
2017-Mar-02 23:33N 34°34' E 135°07'1110.7
2017-Mar-02 22:33N 34°37' E 134°54'  
2017-Feb-28 07:28N 34°42' E 134°48'1 0.1
2017-Feb-27 22:28N 34°41' E 134°47'0 0.0
2017-Feb-27 21:16N 34°41' E 134°47'0 0.1
2017-Feb-27 20:28N 34°41' E 134°47'0 0.0
2017-Feb-27 19:22N 34°41' E 134°47'0 0.0
2017-Feb-27 16:10N 34°41' E 134°47'0 0.0
2017-Feb-27 14:28N 34°41' E 134°47'0 0.0
2017-Feb-27 12:28N 34°41' E 134°47'0 0.0
2017-Feb-27 11:22N 34°41' E 134°47'0 0.0
2017-Feb-27 10:16N 34°41' E 134°47'11 1.3
2017-Feb-27 01:31N 34°38' E 135°00'1010.7
2017-Feb-27 00:33N 34°28' E 135°03'1212.3
2017-Feb-26 23:33N 34°16' E 134°59'1111.4
2017-Feb-26 22:33N 34°04' E 134°59'  
Track history (hours):
 
Tides and Currents Weather Stations Pressure Air Temp Water Temp Dewpoint Dewpoint Depression Visibility Wind Speed Wind Dir Waves Ship Positions

Marine Hornbill

Last reported at 2017-Mar-04 11:31 UTC. Time now 2017-Mar-24 06:02 UTC.
Position N 34°07' E 134°57'.
Warning: this ship's position is 19 days out of date.

Length 116 m; draft 7.2 m.

Type: Cargo ship. MMSI: 357869000.

Date/timePositionNaut miles runAvg speedWind from/ knotsBaromVisibWave heightAir tempDewpointWater temp
2017-Mar-04 11:31N 34°07' E 134°57'1312.8
2017-Mar-04 10:29N 34°20' E 134°60'1212.5
2017-Mar-04 09:32N 34°30' E 135°07'1111.0
2017-Mar-04 08:33N 34°38' E 135°16'4 3.9
2017-Mar-04 07:31N 34°42' E 135°15'0 0.0
2017-Mar-04 06:31N 34°42' E 135°15'0 0.0
2017-Mar-04 05:31N 34°42' E 135°15'0 0.0
2017-Mar-04 04:31N 34°42' E 135°15'0 0.0
2017-Mar-04 03:25N 34°42' E 135°15'0 0.0
2017-Mar-04 02:31N 34°42' E 135°15'0 0.0
2017-Mar-04 01:25N 34°42' E 135°15'0 0.0
2017-Mar-04 00:31N 34°42' E 135°15'0 0.0
2017-Mar-03 23:25N 34°42' E 135°15'0 0.0
2017-Mar-03 22:31N 34°42' E 135°15'0 0.0
2017-Mar-03 21:31N 34°42' E 135°15'0 0.0
2017-Mar-03 20:31N 34°42' E 135°15'0 0.0
2017-Mar-03 19:19N 34°42' E 135°15'0 0.0
2017-Mar-03 18:31N 34°42' E 135°15'0 0.0
2017-Mar-03 17:25N 34°42' E 135°15'0 0.0
2017-Mar-03 16:31N 34°42' E 135°15'0 0.0
2017-Mar-03 15:25N 34°42' E 135°15'0 0.0
2017-Mar-03 14:31N 34°42' E 135°15'0 0.0
2017-Mar-03 13:31N 34°42' E 135°15'0 0.0
2017-Mar-03 12:25N 34°42' E 135°15'0 0.0
2017-Mar-03 11:31N 34°42' E 135°15'0 0.0
2017-Mar-03 10:31N 34°42' E 135°15'0 0.0
2017-Mar-03 09:31N 34°42' E 135°15'0 0.0
2017-Mar-03 08:31N 34°42' E 135°15'0 0.0
2017-Mar-03 07:31N 34°42' E 135°15'0 0.0
2017-Mar-03 06:31N 34°42' E 135°15'0 0.0
2017-Mar-03 05:31N 34°42' E 135°15'0 0.0
2017-Mar-03 04:34N 34°42' E 135°15'3 3.0
2017-Mar-03 03:33N 34°39' E 135°16'2 2.2
2017-Mar-03 02:33N 34°37' E 135°14'0 0.0
2017-Mar-03 01:27N 34°37' E 135°14'0 0.2
2017-Mar-03 00:33N 34°37' E 135°14'7 6.7
2017-Mar-02 23:33N 34°34' E 135°07'1110.7
2017-Mar-02 22:33N 34°37' E 134°54'  
2017-Feb-28 07:28N 34°42' E 134°48'1 0.1
2017-Feb-27 22:28N 34°41' E 134°47'0 0.0
2017-Feb-27 21:16N 34°41' E 134°47'0 0.1
2017-Feb-27 20:28N 34°41' E 134°47'0 0.0
2017-Feb-27 19:22N 34°41' E 134°47'0 0.0
2017-Feb-27 16:10N 34°41' E 134°47'0 0.0
2017-Feb-27 14:28N 34°41' E 134°47'0 0.0
2017-Feb-27 12:28N 34°41' E 134°47'0 0.0
2017-Feb-27 11:22N 34°41' E 134°47'0 0.0
2017-Feb-27 10:16N 34°41' E 134°47'11 1.3
2017-Feb-27 01:31N 34°38' E 135°00'1010.7
2017-Feb-27 00:33N 34°28' E 135°03'1212.3
2017-Feb-26 23:33N 34°16' E 134°59'1111.4
2017-Feb-26 22:33N 34°04' E 134°59'  

Dump ship's entire track history